Aida Blu — IBWX — position and weather

sailwx.info

Track history (hours):
 
Tides and Currents Weather Stations Pressure Air Temp Water Temp Dewpoint Dewpoint Depression Visibility Wind Speed Wind Dir Waves Ship Positions

Aida Blu

Last reported at 2018-Feb-25 15:30 UTC. Time now 2018-Feb-25 15:57 UTC.
Position N 38°41' W 009°14'.

Length 252 m; draft 7.3 m.

Type: Passenger vessel. MMSI: 247282500.

Date/timePositionNaut miles runAvg speedWind from/ knotsBaromVisibWave heightAir tempDewpointWater temp
2018-Feb-25 15:30N 38°41' W 009°14'5 9.8
2018-Feb-25 15:00N 38°43' W 009°08'0 0.4
2018-Feb-25 14:30N 38°43' W 009°07'0 0.0
2018-Feb-25 14:00N 38°43' W 009°07'0 0.0
2018-Feb-25 13:27N 38°43' W 009°07'0 0.0
2018-Feb-25 13:00N 38°43' W 009°07'0 0.0
2018-Feb-25 12:30N 38°43' W 009°07'0 0.0
2018-Feb-25 11:57N 38°43' W 009°07'0 0.0
2018-Feb-25 11:27N 38°43' W 009°07'0 0.0
2018-Feb-25 11:00N 38°43' W 009°07'0 0.0
2018-Feb-25 10:30N 38°43' W 009°07'0 0.0
2018-Feb-25 10:00N 38°43' W 009°07'0 0.0
2018-Feb-25 09:30N 38°43' W 009°07'0 0.0
2018-Feb-25 09:00N 38°43' W 009°07'0 0.0
2018-Feb-25 08:30N 38°43' W 009°07'0 0.0
2018-Feb-25 08:00N 38°43' W 009°07'0 0.0
2018-Feb-25 07:30N 38°43' W 009°07'2 3.2
2018-Feb-25 07:00N 38°42' W 009°09'510.0
2018-Feb-25 06:30N 38°41' W 009°15'612.0
2018-Feb-25 06:00N 38°38' W 009°22'714.5
2018-Feb-25 05:30N 38°33' W 009°28'714.2
2018-Feb-25 05:01N 38°28' W 009°35'714.1
2018-Feb-25 04:30N 38°23' W 009°41'714.4
2018-Feb-25 04:00N 38°17' W 009°47'2015.1
2018-Feb-25 02:39N 38°03' W 010°06'215.0
2018-Feb-25 02:30N 38°02' W 010°08'1015.0
2018-Feb-25 01:49N 37°54' W 010°16'  
2018-Feb-19 09:21N 28°28' W 016°15'0 0.0
2018-Feb-19 09:00N 28°28' W 016°15'0 0.0
2018-Feb-19 08:24N 28°28' W 016°15'0 0.0
2018-Feb-19 08:00N 28°28' W 016°15'0 0.0
2018-Feb-19 07:30N 28°28' W 016°15'0 0.0
2018-Feb-19 07:00N 28°28' W 016°15'0 0.0
2018-Feb-19 06:30N 28°28' W 016°15'0 0.0
2018-Feb-19 06:00N 28°28' W 016°15'0 0.0
2018-Feb-19 05:30N 28°28' W 016°15'0 0.0
2018-Feb-19 05:00N 28°28' W 016°15'0 0.0
2018-Feb-19 04:30N 28°28' W 016°15'0 0.0
2018-Feb-19 04:00N 28°28' W 016°15'0 0.0
2018-Feb-19 03:30N 28°28' W 016°15'1 1.5
2018-Feb-19 03:00N 28°29' W 016°14'4 8.0
2018-Feb-19 02:30N 28°25' W 016°13'713.6
2018-Feb-19 02:00N 28°18' W 016°15'510.5
2018-Feb-19 01:30N 28°13' W 016°17'7 8.2
2018-Feb-19 00:38N 28°06' W 016°19'1 8.0
2018-Feb-19 00:27N 28°05' W 016°20'51 1.1
2018-Feb-17 00:18N 28°48' W 015°48'518.5
2018-Feb-17 00:00N 28°48' W 015°42'918.6
2018-Feb-16 23:30N 28°48' W 015°31'918.6
2018-Feb-16 23:00N 28°48' W 015°20'918.0
2018-Feb-16 22:30N 28°48' W 015°10'918.2
2018-Feb-16 22:00N 28°48' W 014°60'918.4
2018-Feb-16 21:30N 28°48' W 014°49'918.3
2018-Feb-16 21:00N 28°48' W 014°39'918.5
2018-Feb-16 20:30N 28°48' W 014°28'918.8
2018-Feb-16 20:00N 28°48' W 014°18'2718.5
2018-Feb-16 18:32N 28°47' W 013°47'118.7
2018-Feb-16 18:29N 28°47' W 013°46'918.5
2018-Feb-16 18:00N 28°38' W 013°46'916.6
2018-Feb-16 17:29N 28°29' W 013°48'3 1.9
2018-Feb-16 16:02N 28°30' W 013°51'0 0.0
2018-Feb-16 15:44N 28°30' W 013°51'0 0.0
2018-Feb-16 15:26N 28°30' W 013°51'0 0.0
2018-Feb-16 14:50N 28°30' W 013°51'0 0.0
2018-Feb-16 09:38N 28°30' W 013°51'0 0.0
2018-Feb-16 09:26N 28°30' W 013°51'0 0.0
2018-Feb-16 08:44N 28°30' W 013°51'0 0.0
2018-Feb-16 07:14N 28°30' W 013°51'0 0.0
2018-Feb-16 06:56N 28°30' W 013°51'1 1.2
2018-Feb-16 06:30N 28°29' W 013°51'710.8
2018-Feb-16 05:52N 28°34' W 013°45'513.6
2018-Feb-16 05:30N 28°38' W 013°42'714.0
2018-Feb-16 05:00N 28°43' W 013°37'714.5
2018-Feb-16 04:30N 28°49' W 013°32'714.8
2018-Feb-16 04:01N 28°55' W 013°27'815.1
2018-Feb-16 03:30N 29°01' W 013°21'914.9
2018-Feb-16 02:52N 29°08' W 013°15'3514.6
2018-Feb-16 00:28N 29°36' W 012°50'914.9
2018-Feb-15 23:50N 29°44' W 012°44'515.1
2018-Feb-15 23:31N 29°48' W 012°40'3416.0
2018-Feb-15 21:23N 30°15' W 012°16'  
Track history (hours):
 
Tides and Currents Weather Stations Pressure Air Temp Water Temp Dewpoint Dewpoint Depression Visibility Wind Speed Wind Dir Waves Ship Positions

Aida Blu

Last reported at 2018-Feb-25 15:30 UTC. Time now 2018-Feb-25 15:57 UTC.
Position N 38°41' W 009°14'.

Length 252 m; draft 7.3 m.

Type: Passenger vessel. MMSI: 247282500.

Date/timePositionNaut miles runAvg speedWind from/ knotsBaromVisibWave heightAir tempDewpointWater temp
2018-Feb-25 15:30N 38°41' W 009°14'5 9.8
2018-Feb-25 15:00N 38°43' W 009°08'0 0.4
2018-Feb-25 14:30N 38°43' W 009°07'0 0.0
2018-Feb-25 14:00N 38°43' W 009°07'0 0.0
2018-Feb-25 13:27N 38°43' W 009°07'0 0.0
2018-Feb-25 13:00N 38°43' W 009°07'0 0.0
2018-Feb-25 12:30N 38°43' W 009°07'0 0.0
2018-Feb-25 11:57N 38°43' W 009°07'0 0.0
2018-Feb-25 11:27N 38°43' W 009°07'0 0.0
2018-Feb-25 11:00N 38°43' W 009°07'0 0.0
2018-Feb-25 10:30N 38°43' W 009°07'0 0.0
2018-Feb-25 10:00N 38°43' W 009°07'0 0.0
2018-Feb-25 09:30N 38°43' W 009°07'0 0.0
2018-Feb-25 09:00N 38°43' W 009°07'0 0.0
2018-Feb-25 08:30N 38°43' W 009°07'0 0.0
2018-Feb-25 08:00N 38°43' W 009°07'0 0.0
2018-Feb-25 07:30N 38°43' W 009°07'2 3.2
2018-Feb-25 07:00N 38°42' W 009°09'510.0
2018-Feb-25 06:30N 38°41' W 009°15'612.0
2018-Feb-25 06:00N 38°38' W 009°22'714.5
2018-Feb-25 05:30N 38°33' W 009°28'714.2
2018-Feb-25 05:01N 38°28' W 009°35'714.1
2018-Feb-25 04:30N 38°23' W 009°41'714.4
2018-Feb-25 04:00N 38°17' W 009°47'2015.1
2018-Feb-25 02:39N 38°03' W 010°06'215.0
2018-Feb-25 02:30N 38°02' W 010°08'1015.0
2018-Feb-25 01:49N 37°54' W 010°16'  
2018-Feb-19 09:21N 28°28' W 016°15'0 0.0
2018-Feb-19 09:00N 28°28' W 016°15'0 0.0
2018-Feb-19 08:24N 28°28' W 016°15'0 0.0
2018-Feb-19 08:00N 28°28' W 016°15'0 0.0
2018-Feb-19 07:30N 28°28' W 016°15'0 0.0
2018-Feb-19 07:00N 28°28' W 016°15'0 0.0
2018-Feb-19 06:30N 28°28' W 016°15'0 0.0
2018-Feb-19 06:00N 28°28' W 016°15'0 0.0
2018-Feb-19 05:30N 28°28' W 016°15'0 0.0
2018-Feb-19 05:00N 28°28' W 016°15'0 0.0
2018-Feb-19 04:30N 28°28' W 016°15'0 0.0
2018-Feb-19 04:00N 28°28' W 016°15'0 0.0
2018-Feb-19 03:30N 28°28' W 016°15'1 1.5
2018-Feb-19 03:00N 28°29' W 016°14'4 8.0
2018-Feb-19 02:30N 28°25' W 016°13'713.6
2018-Feb-19 02:00N 28°18' W 016°15'510.5
2018-Feb-19 01:30N 28°13' W 016°17'7 8.2
2018-Feb-19 00:38N 28°06' W 016°19'1 8.0
2018-Feb-19 00:27N 28°05' W 016°20'51 1.1
2018-Feb-17 00:18N 28°48' W 015°48'518.5
2018-Feb-17 00:00N 28°48' W 015°42'918.6
2018-Feb-16 23:30N 28°48' W 015°31'918.6
2018-Feb-16 23:00N 28°48' W 015°20'918.0
2018-Feb-16 22:30N 28°48' W 015°10'918.2
2018-Feb-16 22:00N 28°48' W 014°60'918.4
2018-Feb-16 21:30N 28°48' W 014°49'918.3
2018-Feb-16 21:00N 28°48' W 014°39'918.5
2018-Feb-16 20:30N 28°48' W 014°28'918.8
2018-Feb-16 20:00N 28°48' W 014°18'2718.5
2018-Feb-16 18:32N 28°47' W 013°47'118.7
2018-Feb-16 18:29N 28°47' W 013°46'918.5
2018-Feb-16 18:00N 28°38' W 013°46'916.6
2018-Feb-16 17:29N 28°29' W 013°48'3 1.9
2018-Feb-16 16:02N 28°30' W 013°51'0 0.0
2018-Feb-16 15:44N 28°30' W 013°51'0 0.0
2018-Feb-16 15:26N 28°30' W 013°51'0 0.0
2018-Feb-16 14:50N 28°30' W 013°51'0 0.0
2018-Feb-16 09:38N 28°30' W 013°51'0 0.0
2018-Feb-16 09:26N 28°30' W 013°51'0 0.0
2018-Feb-16 08:44N 28°30' W 013°51'0 0.0
2018-Feb-16 07:14N 28°30' W 013°51'0 0.0
2018-Feb-16 06:56N 28°30' W 013°51'1 1.2
2018-Feb-16 06:30N 28°29' W 013°51'710.8
2018-Feb-16 05:52N 28°34' W 013°45'513.6
2018-Feb-16 05:30N 28°38' W 013°42'714.0
2018-Feb-16 05:00N 28°43' W 013°37'714.5
2018-Feb-16 04:30N 28°49' W 013°32'714.8
2018-Feb-16 04:01N 28°55' W 013°27'815.1
2018-Feb-16 03:30N 29°01' W 013°21'914.9
2018-Feb-16 02:52N 29°08' W 013°15'3514.6
2018-Feb-16 00:28N 29°36' W 012°50'914.9
2018-Feb-15 23:50N 29°44' W 012°44'515.1
2018-Feb-15 23:31N 29°48' W 012°40'3416.0
2018-Feb-15 21:23N 30°15' W 012°16'  

Dump ship's entire track history